sensor_id;sensor_type;location;lat;lon;timestamp;temperature;humidity
32811;DHT22;65470;47.324;8.548;2023-03-01T00:01:45;2.90;99.90
32811;DHT22;65470;47.324;8.548;2023-03-01T00:04:11;2.90;99.90
32811;DHT22;65470;47.324;8.548;2023-03-01T00:06:36;2.90;99.90
32811;DHT22;65470;47.324;8.548;2023-03-01T00:09:03;3.00;99.90
32811;DHT22;65470;47.324;8.548;2023-03-01T00:11:30;3.00;99.90
32811;DHT22;65470;47.324;8.548;2023-03-01T00:13:58;3.00;99.90
32811;DHT22;65470;47.324;8.548;2023-03-01T00:16:33;3.00;99.90
32811;DHT22;65470;47.324;8.548;2023-03-01T00:18:59;3.00;99.90
32811;DHT22;65470;47.324;8.548;2023-03-01T00:21:26;3.00;99.90
32811;DHT22;65470;47.324;8.548;2023-03-01T00:23:52;3.10;99.90
32811;DHT22;65470;47.324;8.548;2023-03-01T00:26:19;3.00;99.90
32811;DHT22;65470;47.324;8.548;2023-03-01T00:28:45;3.00;99.90
32811;DHT22;65470;47.324;8.548;2023-03-01T00:31:17;3.00;99.90
32811;DHT22;65470;47.324;8.548;2023-03-01T00:33:43;3.00;99.90
32811;DHT22;65470;47.324;8.548;2023-03-01T00:36:10;3.00;99.90
32811;DHT22;65470;47.324;8.548;2023-03-01T00:38:37;3.10;99.90
32811;DHT22;65470;47.324;8.548;2023-03-01T00:41:07;3.10;99.90
32811;DHT22;65470;47.324;8.548;2023-03-01T00:43:33;3.10;99.90
32811;DHT22;65470;47.324;8.548;2023-03-01T00:46:13;3.10;99.90
32811;DHT22;65470;47.324;8.548;2023-03-01T00:48:40;3.00;99.90
32811;DHT22;65470;47.324;8.548;2023-03-01T00:51:11;3.10;99.90
32811;DHT22;65470;47.324;8.548;2023-03-01T00:53:37;3.10;99.90
32811;DHT22;65470;47.324;8.548;2023-03-01T00:56:04;3.10;99.90
32811;DHT22;65470;47.324;8.548;2023-03-01T00:58:31;3.00;99.90
32811;DHT22;65470;47.324;8.548;2023-03-01T01:00:57;3.10;99.90
32811;DHT22;65470;47.324;8.548;2023-03-01T01:03:23;3.00;99.90
32811;DHT22;65470;47.324;8.548;2023-03-01T01:05:53;3.10;99.90
32811;DHT22;65470;47.324;8.548;2023-03-01T01:08:19;3.10;99.90
32811;DHT22;65470;47.324;8.548;2023-03-01T01:10:46;3.10;99.90
32811;DHT22;65470;47.324;8.548;2023-03-01T01:13:12;3.00;99.90
32811;DHT22;65470;47.324;8.548;2023-03-01T01:15:38;3.00;99.90
32811;DHT22;65470;47.324;8.548;2023-03-01T01:18:04;3.00;99.90
32811;DHT22;65470;47.324;8.548;2023-03-01T01:20:30;3.00;99.90
32811;DHT22;65470;47.324;8.548;2023-03-01T01:22:56;3.10;99.90
32811;DHT22;65470;47.324;8.548;2023-03-01T01:25:21;3.00;99.90
32811;DHT22;65470;47.324;8.548;2023-03-01T01:27:50;3.00;99.90
32811;DHT22;65470;47.324;8.548;2023-03-01T01:30:16;3.00;99.90
32811;DHT22;65470;47.324;8.548;2023-03-01T01:32:41;3.10;99.90
32811;DHT22;65470;47.324;8.548;2023-03-01T01:35:07;3.10;99.90
32811;DHT22;65470;47.324;8.548;2023-03-01T01:37:34;3.10;99.90
32811;DHT22;65470;47.324;8.548;2023-03-01T01:40:01;3.20;99.90
32811;DHT22;65470;47.324;8.548;2023-03-01T01:42:29;3.20;99.90
32811;DHT22;65470;47.324;8.548;2023-03-01T01:45:29;3.20;99.90
32811;DHT22;65470;47.324;8.548;2023-03-01T01:48:01;3.10;99.90
32811;DHT22;65470;47.324;8.548;2023-03-01T01:50:28;3.10;99.90
32811;DHT22;65470;47.324;8.548;2023-03-01T01:53:07;3.10;99.90
32811;DHT22;65470;47.324;8.548;2023-03-01T01:55:35;3.10;99.90
32811;DHT22;65470;47.324;8.548;2023-03-01T01:58:05;3.10;99.90
32811;DHT22;65470;47.324;8.548;2023-03-01T02:00:32;3.10;99.90
32811;DHT22;65470;47.324;8.548;2023-03-01T02:03:00;3.10;99.90
32811;DHT22;65470;47.324;8.548;2023-03-01T02:06:03;3.10;99.90
32811;DHT22;65470;47.324;8.548;2023-03-01T02:08:31;3.10;99.90
32811;DHT22;65470;47.324;8.548;2023-03-01T02:10:59;3.10;99.90
32811;DHT22;65470;47.324;8.548;2023-03-01T02:13:26;3.10;99.90
32811;DHT22;65470;47.324;8.548;2023-03-01T02:15:52;3.10;99.90
32811;DHT22;65470;47.324;8.548;2023-03-01T02:18:21;3.10;99.90
32811;DHT22;65470;47.324;8.548;2023-03-01T02:23:16;3.20;99.90
32811;DHT22;65470;47.324;8.548;2023-03-01T02:28:34;3.30;99.90
32811;DHT22;65470;47.324;8.548;2023-03-01T02:31:01;3.30;99.90
32811;DHT22;65470;47.324;8.548;2023-03-01T02:33:46;3.30;99.90
32811;DHT22;65470;47.324;8.548;2023-03-01T02:36:23;3.30;99.90
32811;DHT22;65470;47.324;8.548;2023-03-01T02:38:52;3.30;99.90
32811;DHT22;65470;47.324;8.548;2023-03-01T02:41:19;3.30;99.90
32811;DHT22;65470;47.324;8.548;2023-03-01T02:43:46;3.20;99.90
32811;DHT22;65470;47.324;8.548;2023-03-01T02:46:20;3.30;99.90
32811;DHT22;65470;47.324;8.548;2023-03-01T02:48:52;3.30;99.90
32811;DHT22;65470;47.324;8.548;2023-03-01T02:54:28;3.30;99.90
32811;DHT22;65470;47.324;8.548;2023-03-01T02:56:55;3.30;99.90
32811;DHT22;65470;47.324;8.548;2023-03-01T02:59:28;3.20;99.90
32811;DHT22;65470;47.324;8.548;2023-03-01T03:05:25;3.20;99.90
32811;DHT22;65470;47.324;8.548;2023-03-01T03:07:51;3.30;99.90
32811;DHT22;65470;47.324;8.548;2023-03-01T03:10:27;3.30;99.90
32811;DHT22;65470;47.324;8.548;2023-03-01T03:13:00;3.30;99.90
32811;DHT22;65470;47.324;8.548;2023-03-01T03:15:27;3.20;99.90
32811;DHT22;65470;47.324;8.548;2023-03-01T03:17:53;3.20;99.90
32811;DHT22;65470;47.324;8.548;2023-03-01T03:20:22;3.20;99.90
32811;DHT22;65470;47.324;8.548;2023-03-01T03:22:51;3.20;99.90
32811;DHT22;65470;47.324;8.548;2023-03-01T03:25:18;3.10;99.90
32811;DHT22;65470;47.324;8.548;2023-03-01T03:27:45;3.10;99.90
32811;DHT22;65470;47.324;8.548;2023-03-01T03:30:17;3.10;99.90
32811;DHT22;65470;47.324;8.548;2023-03-01T03:32:44;3.20;99.90
32811;DHT22;65470;47.324;8.548;2023-03-01T03:35:22;3.20;99.90
32811;DHT22;65470;47.324;8.548;2023-03-01T03:37:48;3.20;99.90
32811;DHT22;65470;47.324;8.548;2023-03-01T03:40:36;3.10;99.90
32811;DHT22;65470;47.324;8.548;2023-03-01T03:43:11;3.10;99.90
32811;DHT22;65470;47.324;8.548;2023-03-01T03:45:37;3.10;99.90
32811;DHT22;65470;47.324;8.548;2023-03-01T03:48:05;3.10;99.90
32811;DHT22;65470;47.324;8.548;2023-03-01T03:50:32;3.10;99.90
32811;DHT22;65470;47.324;8.548;2023-03-01T03:53:00;3.10;99.90
32811;DHT22;65470;47.324;8.548;2023-03-01T03:55:25;3.20;99.90
32811;DHT22;65470;47.324;8.548;2023-03-01T03:57:57;3.20;99.90
32811;DHT22;65470;47.324;8.548;2023-03-01T04:00:23;3.30;99.90
32811;DHT22;65470;47.324;8.548;2023-03-01T04:02:50;3.30;99.90
32811;DHT22;65470;47.324;8.548;2023-03-01T04:05:18;3.30;99.90
32811;DHT22;65470;47.324;8.548;2023-03-01T04:07:45;3.30;99.90
32811;DHT22;65470;47.324;8.548;2023-03-01T04:10:13;3.30;99.90
32811;DHT22;65470;47.324;8.548;2023-03-01T04:12:39;3.40;99.90
32811;DHT22;65470;47.324;8.548;2023-03-01T04:15:06;3.40;99.90
32811;DHT22;65470;47.324;8.548;2023-03-01T04:17:45;3.50;99.90
32811;DHT22;65470;47.324;8.548;2023-03-01T04:20:15;3.40;99.90
32811;DHT22;65470;47.324;8.548;2023-03-01T04:22:43;3.40;99.90
32811;DHT22;65470;47.324;8.548;2023-03-01T04:25:12;3.50;99.90
32811;DHT22;65470;47.324;8.548;2023-03-01T04:27:40;3.50;99.90
32811;DHT22;65470;47.324;8.548;2023-03-01T04:30:06;3.40;99.90
32811;DHT22;65470;47.324;8.548;2023-03-01T04:32:32;3.40;99.90
32811;DHT22;65470;47.324;8.548;2023-03-01T04:34:57;3.40;99.90
32811;DHT22;65470;47.324;8.548;2023-03-01T04:37:23;3.40;99.90
32811;DHT22;65470;47.324;8.548;2023-03-01T04:39:49;3.40;99.90
32811;DHT22;65470;47.324;8.548;2023-03-01T04:42:15;3.50;99.90
32811;DHT22;65470;47.324;8.548;2023-03-01T04:44:42;3.40;99.90
32811;DHT22;65470;47.324;8.548;2023-03-01T04:47:08;3.40;99.90
32811;DHT22;65470;47.324;8.548;2023-03-01T04:49:34;3.40;99.90
32811;DHT22;65470;47.324;8.548;2023-03-01T04:51:59;3.40;99.90
32811;DHT22;65470;47.324;8.548;2023-03-01T04:54:28;3.40;99.90
32811;DHT22;65470;47.324;8.548;2023-03-01T04:56:54;3.40;99.90
32811;DHT22;65470;47.324;8.548;2023-03-01T04:59:20;3.40;99.90
32811;DHT22;65470;47.324;8.548;2023-03-01T05:01:51;3.40;99.90
32811;DHT22;65470;47.324;8.548;2023-03-01T05:04:17;3.40;99.90
32811;DHT22;65470;47.324;8.548;2023-03-01T05:06:43;3.40;99.90
32811;DHT22;65470;47.324;8.548;2023-03-01T05:09:09;3.40;99.90
32811;DHT22;65470;47.324;8.548;2023-03-01T05:11:37;3.50;99.90
32811;DHT22;65470;47.324;8.548;2023-03-01T05:14:03;3.50;99.90
32811;DHT22;65470;47.324;8.548;2023-03-01T05:16:30;3.50;99.90
32811;DHT22;65470;47.324;8.548;2023-03-01T05:18:57;3.50;99.90
32811;DHT22;65470;47.324;8.548;2023-03-01T05:21:22;3.50;99.90
32811;DHT22;65470;47.324;8.548;2023-03-01T05:23:48;3.50;99.90
32811;DHT22;65470;47.324;8.548;2023-03-01T05:26:15;3.50;99.90
32811;DHT22;65470;47.324;8.548;2023-03-01T05:28:41;3.50;99.90
32811;DHT22;65470;47.324;8.548;2023-03-01T05:31:07;3.50;99.90
32811;DHT22;65470;47.324;8.548;2023-03-01T05:33:39;3.50;99.90
32811;DHT22;65470;47.324;8.548;2023-03-01T05:36:06;3.50;99.90
32811;DHT22;65470;47.324;8.548;2023-03-01T05:38:33;3.60;99.90
32811;DHT22;65470;47.324;8.548;2023-03-01T05:40:58;3.50;99.90
32811;DHT22;65470;47.324;8.548;2023-03-01T05:43:24;3.60;99.90
32811;DHT22;65470;47.324;8.548;2023-03-01T05:45:50;3.50;99.90
32811;DHT22;65470;47.324;8.548;2023-03-01T05:48:15;3.50;99.90
32811;DHT22;65470;47.324;8.548;2023-03-01T05:50:43;3.50;99.90
32811;DHT22;65470;47.324;8.548;2023-03-01T05:53:11;3.50;99.90
32811;DHT22;65470;47.324;8.548;2023-03-01T05:55:38;3.50;99.90
32811;DHT22;65470;47.324;8.548;2023-03-01T05:58:07;3.50;99.90
32811;DHT22;65470;47.324;8.548;2023-03-01T06:00:33;3.50;99.90
32811;DHT22;65470;47.324;8.548;2023-03-01T06:02:59;3.40;99.90
32811;DHT22;65470;47.324;8.548;2023-03-01T06:05:26;3.40;99.90
32811;DHT22;65470;47.324;8.548;2023-03-01T06:07:52;3.40;99.90
32811;DHT22;65470;47.324;8.548;2023-03-01T06:10:19;3.40;99.90
32811;DHT22;65470;47.324;8.548;2023-03-01T06:12:45;3.40;99.90
32811;DHT22;65470;47.324;8.548;2023-03-01T06:15:13;3.40;99.90
32811;DHT22;65470;47.324;8.548;2023-03-01T06:17:41;3.40;99.90
32811;DHT22;65470;47.324;8.548;2023-03-01T06:22:41;3.40;99.90
32811;DHT22;65470;47.324;8.548;2023-03-01T06:25:08;3.40;99.90
32811;DHT22;65470;47.324;8.548;2023-03-01T06:27:34;3.30;99.90
32811;DHT22;65470;47.324;8.548;2023-03-01T06:29:59;3.30;99.90
32811;DHT22;65470;47.324;8.548;2023-03-01T06:32:25;3.30;99.90
32811;DHT22;65470;47.324;8.548;2023-03-01T06:34:51;3.40;99.90
32811;DHT22;65470;47.324;8.548;2023-03-01T06:37:17;3.40;99.90
32811;DHT22;65470;47.324;8.548;2023-03-01T06:39:42;3.40;99.90
32811;DHT22;65470;47.324;8.548;2023-03-01T06:42:09;3.30;99.90
32811;DHT22;65470;47.324;8.548;2023-03-01T06:44:38;3.30;99.90
32811;DHT22;65470;47.324;8.548;2023-03-01T06:47:04;3.30;99.90
32811;DHT22;65470;47.324;8.548;2023-03-01T06:49:30;3.40;99.90
32811;DHT22;65470;47.324;8.548;2023-03-01T06:51:56;3.40;99.90
32811;DHT22;65470;47.324;8.548;2023-03-01T06:54:22;3.40;99.90
32811;DHT22;65470;47.324;8.548;2023-03-01T06:56:48;3.40;99.90
32811;DHT22;65470;47.324;8.548;2023-03-01T06:59:15;3.50;99.90
32811;DHT22;65470;47.324;8.548;2023-03-01T07:01:41;3.50;99.90
32811;DHT22;65470;47.324;8.548;2023-03-01T07:04:06;3.40;99.90
32811;DHT22;65470;47.324;8.548;2023-03-01T07:06:32;3.50;99.90
32811;DHT22;65470;47.324;8.548;2023-03-01T07:08:58;3.50;99.90
32811;DHT22;65470;47.324;8.548;2023-03-01T07:11:24;3.50;99.90
32811;DHT22;65470;47.324;8.548;2023-03-01T07:13:50;3.60;99.90
32811;DHT22;65470;47.324;8.548;2023-03-01T07:16:15;3.60;99.90
32811;DHT22;65470;47.324;8.548;2023-03-01T07:18:41;3.60;99.90
32811;DHT22;65470;47.324;8.548;2023-03-01T07:21:08;3.60;99.90
32811;DHT22;65470;47.324;8.548;2023-03-01T07:23:35;3.60;99.90
32811;DHT22;65470;47.324;8.548;2023-03-01T07:26:00;3.70;99.90
32811;DHT22;65470;47.324;8.548;2023-03-01T07:28:27;3.60;99.90
32811;DHT22;65470;47.324;8.548;2023-03-01T07:30:53;3.60;99.90
32811;DHT22;65470;47.324;8.548;2023-03-01T07:33:19;3.60;99.90
32811;DHT22;65470;47.324;8.548;2023-03-01T07:35:45;3.70;99.90
32811;DHT22;65470;47.324;8.548;2023-03-01T07:38:11;3.60;99.90
32811;DHT22;65470;47.324;8.548;2023-03-01T07:40:36;3.60;99.90
32811;DHT22;65470;47.324;8.548;2023-03-01T07:43:02;3.60;99.90
32811;DHT22;65470;47.324;8.548;2023-03-01T07:45:29;3.70;99.90
32811;DHT22;65470;47.324;8.548;2023-03-01T07:47:55;3.60;99.90
32811;DHT22;65470;47.324;8.548;2023-03-01T07:50:21;3.70;99.90
32811;DHT22;65470;47.324;8.548;2023-03-01T07:52:49;3.70;99.90
32811;DHT22;65470;47.324;8.548;2023-03-01T07:55:15;3.70;99.90
32811;DHT22;65470;47.324;8.548;2023-03-01T07:57:41;3.70;99.90
32811;DHT22;65470;47.324;8.548;2023-03-01T08:00:09;3.70;99.90
32811;DHT22;65470;47.324;8.548;2023-03-01T08:02:35;3.70;99.90
32811;DHT22;65470;47.324;8.548;2023-03-01T08:05:01;3.60;99.90
32811;DHT22;65470;47.324;8.548;2023-03-01T08:07:26;3.70;99.90
32811;DHT22;65470;47.324;8.548;2023-03-01T08:09:52;3.80;99.90
32811;DHT22;65470;47.324;8.548;2023-03-01T08:12:17;3.80;99.90
32811;DHT22;65470;47.324;8.548;2023-03-01T08:14:43;3.80;99.90
32811;DHT22;65470;47.324;8.548;2023-03-01T08:17:09;3.80;99.90
32811;DHT22;65470;47.324;8.548;2023-03-01T08:19:34;3.80;99.90
32811;DHT22;65470;47.324;8.548;2023-03-01T08:22:03;3.90;99.90
32811;DHT22;65470;47.324;8.548;2023-03-01T08:24:30;3.90;99.90
32811;DHT22;65470;47.324;8.548;2023-03-01T08:26:56;4.00;99.90
32811;DHT22;65470;47.324;8.548;2023-03-01T08:29:22;3.90;99.90
32811;DHT22;65470;47.324;8.548;2023-03-01T08:31:48;3.80;99.90
32811;DHT22;65470;47.324;8.548;2023-03-01T08:34:15;3.90;99.90
32811;DHT22;65470;47.324;8.548;2023-03-01T08:36:43;4.00;99.90
32811;DHT22;65470;47.324;8.548;2023-03-01T08:39:11;3.90;99.90
32811;DHT22;65470;47.324;8.548;2023-03-01T08:41:37;4.00;99.90
32811;DHT22;65470;47.324;8.548;2023-03-01T08:44:04;4.10;99.90
32811;DHT22;65470;47.324;8.548;2023-03-01T08:46:32;4.20;99.90
32811;DHT22;65470;47.324;8.548;2023-03-01T08:48:57;4.10;99.90
32811;DHT22;65470;47.324;8.548;2023-03-01T08:51:24;4.10;99.90
32811;DHT22;65470;47.324;8.548;2023-03-01T08:53:50;4.00;99.90
32811;DHT22;65470;47.324;8.548;2023-03-01T08:56:17;3.90;99.90
32811;DHT22;65470;47.324;8.548;2023-03-01T08:58:47;4.00;99.90
32811;DHT22;65470;47.324;8.548;2023-03-01T09:01:15;4.00;99.90
32811;DHT22;65470;47.324;8.548;2023-03-01T09:03:42;4.10;99.90
32811;DHT22;65470;47.324;8.548;2023-03-01T09:06:08;4.00;99.90
32811;DHT22;65470;47.324;8.548;2023-03-01T09:08:39;4.00;99.90
32811;DHT22;65470;47.324;8.548;2023-03-01T09:11:07;4.20;99.90
32811;DHT22;65470;47.324;8.548;2023-03-01T09:13:33;4.30;99.90
32811;DHT22;65470;47.324;8.548;2023-03-01T09:16:01;4.30;99.90
32811;DHT22;65470;47.324;8.548;2023-03-01T09:18:28;4.40;99.90
32811;DHT22;65470;47.324;8.548;2023-03-01T09:21:00;4.30;99.90
32811;DHT22;65470;47.324;8.548;2023-03-01T09:23:25;4.40;99.90
32811;DHT22;65470;47.324;8.548;2023-03-01T09:25:52;4.50;99.90
32811;DHT22;65470;47.324;8.548;2023-03-01T09:28:18;4.40;99.90
32811;DHT22;65470;47.324;8.548;2023-03-01T09:30:43;4.40;99.90
32811;DHT22;65470;47.324;8.548;2023-03-01T09:33:09;4.50;99.90
32811;DHT22;65470;47.324;8.548;2023-03-01T09:35:40;4.40;99.90
32811;DHT22;65470;47.324;8.548;2023-03-01T09:38:11;4.50;99.90
32811;DHT22;65470;47.324;8.548;2023-03-01T09:40:42;4.50;99.90
32811;DHT22;65470;47.324;8.548;2023-03-01T09:43:25;4.50;99.90
32811;DHT22;65470;47.324;8.548;2023-03-01T09:45:54;4.60;99.90
32811;DHT22;65470;47.324;8.548;2023-03-01T09:48:25;4.60;99.90
32811;DHT22;65470;47.324;8.548;2023-03-01T09:50:52;4.50;99.90
32811;DHT22;65470;47.324;8.548;2023-03-01T09:53:20;4.50;99.90
32811;DHT22;65470;47.324;8.548;2023-03-01T09:56:02;4.50;99.90
32811;DHT22;65470;47.324;8.548;2023-03-01T10:01:33;4.50;99.90
32811;DHT22;65470;47.324;8.548;2023-03-01T10:04:49;4.60;99.90
32811;DHT22;65470;47.324;8.548;2023-03-01T10:10:34;4.60;99.90
32811;DHT22;65470;47.324;8.548;2023-03-01T10:13:13;4.60;99.90
32811;DHT22;65470;47.324;8.548;2023-03-01T10:15:49;4.60;99.90
32811;DHT22;65470;47.324;8.548;2023-03-01T10:18:22;4.50;99.90
32811;DHT22;65470;47.324;8.548;2023-03-01T10:21:13;4.60;99.90
32811;DHT22;65470;47.324;8.548;2023-03-01T10:23:40;4.50;99.90
32811;DHT22;65470;47.324;8.548;2023-03-01T10:29:11;4.70;99.90
32811;DHT22;65470;47.324;8.548;2023-03-01T10:34:20;4.60;99.90
32811;DHT22;65470;47.324;8.548;2023-03-01T10:36:57;4.60;99.90
32811;DHT22;65470;47.324;8.548;2023-03-01T10:39:25;4.60;99.90
32811;DHT22;65470;47.324;8.548;2023-03-01T10:41:57;4.70;99.90
32811;DHT22;65470;47.324;8.548;2023-03-01T10:44:39;4.60;99.90
32811;DHT22;65470;47.324;8.548;2023-03-01T10:47:08;4.70;99.90
32811;DHT22;65470;47.324;8.548;2023-03-01T10:49:37;4.70;99.90
32811;DHT22;65470;47.324;8.548;2023-03-01T10:52:18;4.70;99.90
32811;DHT22;65470;47.324;8.548;2023-03-01T10:54:52;4.80;99.90
32811;DHT22;65470;47.324;8.548;2023-03-01T10:57:31;4.90;99.90
32811;DHT22;65470;47.324;8.548;2023-03-01T11:00:20;5.00;99.90
32811;DHT22;65470;47.324;8.548;2023-03-01T11:03:04;5.00;99.90
32811;DHT22;65470;47.324;8.548;2023-03-01T11:05:35;5.00;99.90
32811;DHT22;65470;47.324;8.548;2023-03-01T11:08:02;5.00;99.90
32811;DHT22;65470;47.324;8.548;2023-03-01T11:10:34;4.90;99.90
32811;DHT22;65470;47.324;8.548;2023-03-01T11:13:09;5.00;99.90
32811;DHT22;65470;47.324;8.548;2023-03-01T11:15:39;5.10;99.90
32811;DHT22;65470;47.324;8.548;2023-03-01T11:18:21;5.10;99.90
32811;DHT22;65470;47.324;8.548;2023-03-01T11:20:49;5.00;99.90
32811;DHT22;65470;47.324;8.548;2023-03-01T11:23:17;5.10;99.90
32811;DHT22;65470;47.324;8.548;2023-03-01T11:25:55;5.10;99.90
32811;DHT22;65470;47.324;8.548;2023-03-01T11:28:22;5.10;99.90
32811;DHT22;65470;47.324;8.548;2023-03-01T11:31:01;5.00;99.90
32811;DHT22;65470;47.324;8.548;2023-03-01T11:33:44;5.10;99.90
32811;DHT22;65470;47.324;8.548;2023-03-01T11:37:15;5.10;99.90
32811;DHT22;65470;47.324;8.548;2023-03-01T11:39:41;5.20;99.90
32811;DHT22;65470;47.324;8.548;2023-03-01T11:45:02;5.40;99.90
32811;DHT22;65470;47.324;8.548;2023-03-01T11:55:36;5.60;99.90
32811;DHT22;65470;47.324;8.548;2023-03-01T12:03:50;5.80;99.90
32811;DHT22;65470;47.324;8.548;2023-03-01T12:06:35;5.80;99.90
32811;DHT22;65470;47.324;8.548;2023-03-01T12:17:58;5.50;99.90
32811;DHT22;65470;47.324;8.548;2023-03-01T12:20:30;5.50;99.90
32811;DHT22;65470;47.324;8.548;2023-03-01T12:25:45;5.50;99.90
32811;DHT22;65470;47.324;8.548;2023-03-01T12:28:24;5.60;99.90
32811;DHT22;65470;47.324;8.548;2023-03-01T12:39:33;5.40;99.90
32811;DHT22;65470;47.324;8.548;2023-03-01T12:50:53;5.20;99.90
32811;DHT22;65470;47.324;8.548;2023-03-01T12:53:37;5.20;99.90
32811;DHT22;65470;47.324;8.548;2023-03-01T12:56:06;5.20;99.90
32811;DHT22;65470;47.324;8.548;2023-03-01T13:01:52;5.20;99.90
32811;DHT22;65470;47.324;8.548;2023-03-01T13:04:30;5.30;99.90
32811;DHT22;65470;47.324;8.548;2023-03-01T13:07:28;5.40;99.90
32811;DHT22;65470;47.324;8.548;2023-03-01T13:10:25;5.40;99.90
32811;DHT22;65470;47.324;8.548;2023-03-01T13:17:49;5.20;99.90
32811;DHT22;65470;47.324;8.548;2023-03-01T13:20:17;5.20;99.90
32811;DHT22;65470;47.324;8.548;2023-03-01T13:22:46;5.20;99.90
32811;DHT22;65470;47.324;8.548;2023-03-01T13:25:19;5.30;99.90
32811;DHT22;65470;47.324;8.548;2023-03-01T13:27:46;5.30;99.90
32811;DHT22;65470;47.324;8.548;2023-03-01T13:35:57;5.50;99.90
32811;DHT22;65470;47.324;8.548;2023-03-01T13:38:47;5.60;99.90
32811;DHT22;65470;47.324;8.548;2023-03-01T13:41:47;5.50;99.90
32811;DHT22;65470;47.324;8.548;2023-03-01T13:46:44;5.50;99.90
32811;DHT22;65470;47.324;8.548;2023-03-01T13:49:16;5.40;99.90
32811;DHT22;65470;47.324;8.548;2023-03-01T13:51:47;5.30;99.90
32811;DHT22;65470;47.324;8.548;2023-03-01T13:54:15;5.40;99.90
32811;DHT22;65470;47.324;8.548;2023-03-01T13:56:41;5.40;99.90
32811;DHT22;65470;47.324;8.548;2023-03-01T13:59:15;5.30;99.90
32811;DHT22;65470;47.324;8.548;2023-03-01T14:01:42;5.20;99.90
32811;DHT22;65470;47.324;8.548;2023-03-01T14:07:20;5.10;99.90
32811;DHT22;65470;47.324;8.548;2023-03-01T14:09:56;5.20;99.90
32811;DHT22;65470;47.324;8.548;2023-03-01T14:12:26;5.20;99.90
32811;DHT22;65470;47.324;8.548;2023-03-01T14:15:35;5.20;99.90
32811;DHT22;65470;47.324;8.548;2023-03-01T14:18:09;5.20;99.90
32811;DHT22;65470;47.324;8.548;2023-03-01T14:20:44;5.20;99.90
32811;DHT22;65470;47.324;8.548;2023-03-01T14:23:20;5.40;99.90
32811;DHT22;65470;47.324;8.548;2023-03-01T14:25:51;5.50;99.90
32811;DHT22;65470;47.324;8.548;2023-03-01T14:28:26;5.50;99.90
32811;DHT22;65470;47.324;8.548;2023-03-01T14:30:54;5.40;99.90
32811;DHT22;65470;47.324;8.548;2023-03-01T14:33:30;5.30;99.90
32811;DHT22;65470;47.324;8.548;2023-03-01T14:38:37;5.30;99.90
32811;DHT22;65470;47.324;8.548;2023-03-01T14:41:23;5.30;99.90
32811;DHT22;65470;47.324;8.548;2023-03-01T14:43:56;5.30;99.90
32811;DHT22;65470;47.324;8.548;2023-03-01T14:46:31;5.30;99.90
32811;DHT22;65470;47.324;8.548;2023-03-01T14:49:09;5.30;99.90
32811;DHT22;65470;47.324;8.548;2023-03-01T14:51:40;5.20;99.90
32811;DHT22;65470;47.324;8.548;2023-03-01T14:54:41;5.20;99.90
32811;DHT22;65470;47.324;8.548;2023-03-01T14:57:24;5.20;99.90
32811;DHT22;65470;47.324;8.548;2023-03-01T14:59:53;5.10;99.90
32811;DHT22;65470;47.324;8.548;2023-03-01T15:02:22;5.20;99.90
32811;DHT22;65470;47.324;8.548;2023-03-01T15:04:51;5.20;99.90
32811;DHT22;65470;47.324;8.548;2023-03-01T15:07:18;5.20;99.90
32811;DHT22;65470;47.324;8.548;2023-03-01T15:09:45;5.10;99.90
32811;DHT22;65470;47.324;8.548;2023-03-01T15:14:56;5.10;99.90
32811;DHT22;65470;47.324;8.548;2023-03-01T15:17:31;5.10;99.90
32811;DHT22;65470;47.324;8.548;2023-03-01T15:19:58;5.00;99.90
32811;DHT22;65470;47.324;8.548;2023-03-01T15:22:25;4.90;99.90
32811;DHT22;65470;47.324;8.548;2023-03-01T15:24:52;4.80;99.90
32811;DHT22;65470;47.324;8.548;2023-03-01T15:27:20;4.80;99.90
32811;DHT22;65470;47.324;8.548;2023-03-01T15:29:55;4.80;99.90
32811;DHT22;65470;47.324;8.548;2023-03-01T15:32:31;4.80;99.90
32811;DHT22;65470;47.324;8.548;2023-03-01T15:34:58;4.70;99.90
32811;DHT22;65470;47.324;8.548;2023-03-01T15:37:49;4.80;99.90
32811;DHT22;65470;47.324;8.548;2023-03-01T15:40:20;4.80;99.90
32811;DHT22;65470;47.324;8.548;2023-03-01T15:42:46;4.70;99.90
32811;DHT22;65470;47.324;8.548;2023-03-01T15:47:47;4.80;99.90
32811;DHT22;65470;47.324;8.548;2023-03-01T15:50:28;4.80;99.90
32811;DHT22;65470;47.324;8.548;2023-03-01T15:52:55;4.80;99.90
32811;DHT22;65470;47.324;8.548;2023-03-01T15:55:26;4.80;99.90
32811;DHT22;65470;47.324;8.548;2023-03-01T15:58:18;4.80;99.90
32811;DHT22;65470;47.324;8.548;2023-03-01T16:00:46;4.70;99.90
32811;DHT22;65470;47.324;8.548;2023-03-01T16:03:14;4.80;99.90
32811;DHT22;65470;47.324;8.548;2023-03-01T16:05:47;4.80;99.90
32811;DHT22;65470;47.324;8.548;2023-03-01T16:08:13;4.80;99.90
32811;DHT22;65470;47.324;8.548;2023-03-01T16:10:39;4.80;99.90
32811;DHT22;65470;47.324;8.548;2023-03-01T16:13:05;4.90;99.90
32811;DHT22;65470;47.324;8.548;2023-03-01T16:15:32;4.90;99.90
32811;DHT22;65470;47.324;8.548;2023-03-01T16:18:01;4.90;99.90
32811;DHT22;65470;47.324;8.548;2023-03-01T16:20:28;4.90;99.90
32811;DHT22;65470;47.324;8.548;2023-03-01T16:22:55;4.80;99.90
32811;DHT22;65470;47.324;8.548;2023-03-01T16:25:23;4.80;99.90
32811;DHT22;65470;47.324;8.548;2023-03-01T16:27:50;4.90;99.90
32811;DHT22;65470;47.324;8.548;2023-03-01T16:30:18;4.80;99.90
32811;DHT22;65470;47.324;8.548;2023-03-01T16:32:45;4.80;99.90
32811;DHT22;65470;47.324;8.548;2023-03-01T16:35:13;4.70;99.90
32811;DHT22;65470;47.324;8.548;2023-03-01T16:37:40;4.60;99.90
32811;DHT22;65470;47.324;8.548;2023-03-01T16:40:14;4.70;99.90
32811;DHT22;65470;47.324;8.548;2023-03-01T16:42:41;4.70;99.90
32811;DHT22;65470;47.324;8.548;2023-03-01T16:45:07;4.60;99.90
32811;DHT22;65470;47.324;8.548;2023-03-01T16:47:34;4.60;99.90
32811;DHT22;65470;47.324;8.548;2023-03-01T16:50:00;4.70;99.90
32811;DHT22;65470;47.324;8.548;2023-03-01T16:52:25;4.60;99.90
32811;DHT22;65470;47.324;8.548;2023-03-01T16:54:51;4.60;99.90
32811;DHT22;65470;47.324;8.548;2023-03-01T16:57:17;4.60;99.90
32811;DHT22;65470;47.324;8.548;2023-03-01T16:59:42;4.60;99.90
32811;DHT22;65470;47.324;8.548;2023-03-01T17:02:14;4.60;99.90
32811;DHT22;65470;47.324;8.548;2023-03-01T17:04:50;4.60;99.90
32811;DHT22;65470;47.324;8.548;2023-03-01T17:07:16;4.60;99.90
32811;DHT22;65470;47.324;8.548;2023-03-01T17:09:42;4.50;99.90
32811;DHT22;65470;47.324;8.548;2023-03-01T17:12:07;4.60;99.90
32811;DHT22;65470;47.324;8.548;2023-03-01T17:14:34;4.60;99.90
32811;DHT22;65470;47.324;8.548;2023-03-01T17:16:59;4.50;99.90
32811;DHT22;65470;47.324;8.548;2023-03-01T17:19:27;4.60;99.90
32811;DHT22;65470;47.324;8.548;2023-03-01T17:21:54;4.60;99.90
32811;DHT22;65470;47.324;8.548;2023-03-01T17:24:19;4.60;99.90
32811;DHT22;65470;47.324;8.548;2023-03-01T17:26:45;4.50;99.90
32811;DHT22;65470;47.324;8.548;2023-03-01T17:29:11;4.50;99.90
32811;DHT22;65470;47.324;8.548;2023-03-01T17:31:38;4.50;99.90
32811;DHT22;65470;47.324;8.548;2023-03-01T17:34:03;4.50;99.90
32811;DHT22;65470;47.324;8.548;2023-03-01T17:36:30;4.50;99.90
32811;DHT22;65470;47.324;8.548;2023-03-01T17:38:57;4.50;99.90
32811;DHT22;65470;47.324;8.548;2023-03-01T17:41:23;4.60;99.90